createdAt,value
2022-11-24T00:01:49.853Z,6.45
2022-11-24T00:04:22.166Z,6.13
2022-11-24T00:06:53.524Z,6.60
2022-11-24T00:09:23.070Z,6.35
2022-11-24T00:11:52.618Z,5.60
2022-11-24T00:14:22.247Z,6.13
2022-11-24T00:16:51.870Z,5.88
2022-11-24T00:19:24.035Z,6.38
2022-11-24T00:21:53.627Z,7.13
2022-11-24T00:24:23.061Z,6.25
2022-11-24T00:26:52.653Z,6.45
2022-11-24T00:29:22.173Z,6.80
2022-11-24T00:31:51.784Z,6.15
2022-11-24T00:34:23.895Z,6.32
2022-11-24T00:36:53.467Z,6.05
2022-11-24T00:39:22.956Z,6.78
2022-11-24T00:41:52.543Z,6.85
2022-11-24T00:44:21.941Z,7.32
2022-11-24T00:46:51.589Z,6.65
2022-11-24T00:49:21.227Z,6.50
2022-11-24T00:51:53.399Z,6.70
2022-11-24T00:54:23.184Z,6.38
2022-11-24T00:56:52.743Z,6.85
2022-11-24T00:59:22.242Z,7.78
2022-11-24T01:01:51.857Z,7.25
2022-11-24T01:04:21.428Z,6.50
2022-11-24T01:06:53.726Z,7.07
2022-11-24T01:09:23.301Z,6.88
2022-11-24T01:12:04.615Z,5.80
2022-11-24T01:14:34.695Z,6.35
2022-11-24T01:17:04.459Z,7.10
2022-11-24T01:19:33.978Z,5.85
2022-11-24T01:22:06.157Z,6.00
2022-11-24T01:24:35.989Z,6.50
2022-11-24T01:27:05.607Z,6.00
2022-11-24T01:29:35.170Z,6.43
2022-11-24T01:32:04.637Z,5.50
2022-11-24T01:34:34.360Z,5.85
2022-11-24T01:37:06.667Z,7.13
2022-11-24T01:39:36.317Z,6.30
2022-11-24T01:42:06.102Z,5.57
2022-11-24T01:44:36.305Z,6.70
2022-11-24T01:47:08.289Z,6.05
2022-11-24T01:49:41.070Z,6.90
2022-11-24T01:52:15.481Z,5.97
2022-11-24T01:54:46.796Z,6.68
2022-11-24T01:57:18.733Z,5.75
2022-11-24T01:59:49.290Z,6.85
2022-11-24T02:02:23.301Z,5.90
2022-11-24T02:04:53.686Z,5.90
2022-11-24T02:07:25.954Z,5.57
2022-11-24T02:09:57.517Z,5.70
2022-11-24T02:12:28.010Z,6.18
2022-11-24T02:14:57.601Z,6.25
2022-11-24T02:17:27.006Z,5.55
2022-11-24T02:19:58.316Z,5.80
2022-11-24T02:22:36.395Z,5.65
2022-11-24T02:25:09.082Z,5.05
2022-11-24T02:27:41.189Z,5.85
2022-11-24T02:30:11.104Z,5.47
2022-11-24T02:32:42.178Z,5.13
2022-11-24T02:35:12.666Z,5.40
2022-11-24T02:37:42.125Z,5.18
2022-11-24T02:40:12.390Z,4.80
2022-11-24T02:42:47.028Z,5.45
2022-11-24T02:45:17.775Z,4.43
2022-11-24T02:47:47.190Z,5.13
2022-11-24T02:50:16.608Z,4.82
2022-11-24T02:52:46.080Z,4.65
2022-11-24T02:55:15.511Z,4.03
2022-11-24T02:57:47.629Z,4.45
2022-11-24T03:00:18.225Z,4.03
2022-11-24T03:02:47.864Z,4.00
2022-11-24T03:05:17.461Z,4.25
2022-11-24T03:07:47.039Z,4.28
2022-11-24T03:10:16.829Z,4.38
2022-11-24T03:12:48.860Z,4.35
2022-11-24T03:15:18.431Z,4.65
2022-11-24T03:17:47.874Z,4.68
2022-11-24T03:20:17.379Z,4.60
2022-11-24T03:22:46.909Z,4.45
2022-11-24T03:25:16.456Z,4.45
2022-11-24T03:27:45.961Z,4.75
2022-11-24T03:30:18.438Z,4.47
2022-11-24T03:32:47.946Z,4.05
2022-11-24T03:35:17.614Z,4.40
2022-11-24T03:37:47.225Z,3.47
2022-11-24T03:40:18.001Z,4.13
2022-11-24T03:42:47.652Z,3.78
2022-11-24T03:45:44.802Z,3.97
2022-11-24T03:48:10.043Z,3.63
2022-11-24T03:50:39.518Z,4.97
2022-11-24T03:53:08.927Z,4.22
2022-11-24T03:55:38.700Z,3.20
2022-11-24T03:58:08.125Z,3.17
2022-11-24T04:00:40.173Z,3.03
2022-11-24T04:03:09.849Z,3.05
2022-11-24T04:05:39.530Z,3.55
2022-11-24T04:08:09.408Z,3.60
2022-11-24T04:10:39.692Z,3.58
2022-11-24T04:13:10.873Z,3.42
2022-11-24T04:15:43.913Z,3.42
2022-11-24T04:18:14.174Z,3.33
2022-11-24T04:20:44.116Z,3.03
2022-11-24T04:23:13.974Z,3.40
2022-11-24T04:25:44.372Z,3.22
2022-11-24T04:28:14.577Z,3.35
2022-11-24T04:30:46.896Z,3.05
2022-11-24T04:33:16.425Z,3.08
2022-11-24T04:35:45.937Z,2.50
2022-11-24T04:39:23.767Z,2.92
2022-11-24T04:41:05.180Z,2.72
2022-11-24T04:43:40.268Z,3.33
2022-11-24T04:46:13.998Z,2.80
2022-11-24T04:48:44.490Z,2.33
2022-11-24T04:51:16.132Z,3.38
2022-11-24T04:53:45.840Z,2.92
2022-11-24T04:56:15.279Z,2.55
2022-11-24T04:58:44.839Z,2.72
2022-11-24T05:01:16.990Z,3.30
2022-11-24T05:03:46.502Z,3.03
2022-11-24T05:06:16.043Z,2.78
2022-11-24T05:08:45.556Z,3.25
2022-11-24T05:11:14.978Z,2.60
2022-11-24T05:13:44.663Z,2.97
2022-11-24T05:16:14.615Z,2.72
2022-11-24T05:18:46.851Z,2.65
2022-11-24T05:21:16.766Z,3.45
2022-11-24T05:23:46.276Z,3.35
2022-11-24T05:26:15.984Z,2.50
2022-11-24T05:28:45.711Z,2.78
2022-11-24T05:31:15.172Z,3.15
2022-11-24T05:33:47.566Z,2.47
2022-11-24T05:36:48.147Z,2.63
2022-11-24T05:39:17.668Z,3.53
2022-11-24T05:41:47.214Z,2.40
2022-11-24T05:44:16.741Z,2.75
2022-11-24T05:46:46.257Z,3.17
2022-11-24T05:49:18.399Z,4.20
2022-11-24T05:51:47.960Z,4.28
2022-11-24T05:54:17.543Z,3.45
2022-11-24T05:56:46.999Z,2.58
2022-11-24T05:59:16.436Z,3.28
2022-11-24T06:01:45.968Z,2.90
2022-11-24T06:04:18.285Z,3.10
2022-11-24T06:06:49.395Z,2.58
2022-11-24T06:09:18.930Z,3.17
2022-11-24T06:11:49.768Z,3.28
2022-11-24T06:14:19.364Z,3.03
2022-11-24T06:16:48.848Z,2.97
2022-11-24T06:19:21.162Z,3.10
2022-11-24T06:21:50.666Z,3.08
2022-11-24T06:24:20.211Z,3.08
2022-11-24T06:26:49.714Z,3.10
2022-11-24T06:29:21.367Z,2.90
2022-11-24T06:31:51.229Z,3.17
2022-11-24T06:34:23.301Z,3.20
2022-11-24T06:36:52.854Z,2.80
2022-11-24T06:39:22.301Z,2.90
2022-11-24T06:41:52.708Z,2.78
2022-11-24T06:44:22.698Z,2.80
2022-11-24T06:46:52.121Z,3.30
2022-11-24T06:49:24.164Z,3.20
2022-11-24T06:51:53.691Z,2.72
2022-11-24T06:54:23.862Z,2.88
2022-11-24T06:56:58.323Z,2.78
2022-11-24T06:59:28.185Z,3.17
2022-11-24T07:01:57.668Z,2.88
2022-11-24T07:04:29.783Z,2.45
2022-11-24T07:06:59.326Z,2.45
2022-11-24T07:09:28.829Z,2.50
2022-11-24T07:11:58.493Z,3.10
2022-11-24T07:14:27.942Z,2.78
2022-11-24T07:16:57.399Z,2.97
2022-11-24T07:19:29.806Z,5.25
2022-11-24T07:21:59.523Z,3.40
2022-11-24T07:24:28.954Z,2.90
2022-11-24T07:26:58.437Z,2.28
2022-11-24T07:29:27.896Z,3.58
2022-11-24T07:32:02.157Z,2.92
2022-11-24T07:34:37.536Z,3.50
2022-11-24T07:37:07.234Z,3.00
2022-11-24T07:39:36.702Z,2.78
2022-11-24T07:42:06.907Z,2.65
2022-11-24T07:44:36.613Z,2.92
2022-11-24T07:47:06.186Z,3.03
2022-11-24T07:49:38.290Z,3.47
2022-11-24T07:52:07.908Z,3.80
2022-11-24T07:54:37.415Z,4.07
2022-11-24T07:57:07.011Z,3.55
2022-11-24T07:59:36.491Z,3.03
2022-11-24T08:02:06.079Z,3.65
2022-11-24T08:04:39.599Z,3.33
2022-11-24T08:07:09.110Z,3.10
2022-11-24T08:09:38.594Z,2.78
2022-11-24T08:12:08.367Z,2.38
2022-11-24T08:14:37.803Z,3.03
2022-11-24T08:17:07.293Z,3.17
2022-11-24T08:19:39.633Z,3.38
2022-11-24T08:22:09.202Z,2.67
2022-11-24T08:24:38.681Z,3.03
2022-11-24T08:27:08.141Z,3.40
2022-11-24T08:29:37.573Z,2.45
2022-11-24T08:32:07.358Z,2.67
2022-11-24T08:34:39.708Z,2.90
2022-11-24T08:37:09.591Z,3.00
2022-11-24T08:39:39.076Z,2.42
2022-11-24T08:42:08.731Z,2.92
2022-11-24T08:44:38.559Z,3.28
2022-11-24T08:47:08.081Z,2.92
2022-11-24T08:49:40.142Z,2.55
2022-11-24T08:52:09.634Z,2.78
2022-11-24T08:54:40.121Z,2.85
2022-11-24T08:57:09.681Z,1.30
2022-11-24T08:59:39.116Z,2.30
2022-11-24T09:02:09.371Z,2.28
2022-11-24T09:04:42.057Z,2.00
2022-11-24T09:07:11.624Z,2.45
2022-11-24T09:09:41.182Z,2.53
2022-11-24T09:12:14.644Z,1.77
2022-11-24T09:14:44.507Z,2.13
2022-11-24T09:17:14.157Z,2.30
2022-11-24T09:19:46.338Z,1.55
2022-11-24T09:22:15.997Z,1.80
2022-11-24T09:24:45.457Z,1.92
2022-11-24T09:27:14.936Z,1.55
2022-11-24T09:29:44.439Z,2.53
2022-11-24T09:32:13.913Z,1.98
2022-11-24T09:34:46.143Z,1.83
2022-11-24T09:37:15.651Z,1.33
2022-11-24T09:39:45.122Z,1.67
2022-11-24T09:42:18.435Z,2.42
2022-11-24T09:45:02.711Z,1.65
2022-11-24T09:47:39.554Z,1.85
2022-11-24T09:50:13.656Z,1.85
2022-11-24T09:52:44.783Z,1.55
2022-11-24T09:55:35.350Z,2.53
2022-11-24T09:58:09.025Z,1.88
2022-11-24T10:00:39.394Z,1.55
2022-11-24T10:03:09.366Z,1.70
2022-11-24T10:05:41.965Z,2.17
2022-11-24T10:08:16.335Z,1.67
2022-11-24T10:10:52.057Z,1.92
2022-11-24T10:13:29.565Z,2.15
2022-11-24T10:16:01.692Z,2.45
2022-11-24T10:18:44.931Z,1.63
2022-11-24T10:21:29.722Z,1.58
2022-11-24T10:24:05.610Z,1.80
2022-11-24T10:26:38.701Z,2.00
2022-11-24T10:29:16.700Z,1.80
2022-11-24T10:31:47.437Z,1.63
2022-11-24T10:34:19.055Z,1.63
2022-11-24T10:36:52.565Z,1.15
2022-11-24T10:39:25.040Z,1.85
2022-11-24T10:41:56.561Z,1.70
2022-11-24T10:44:26.241Z,1.83
2022-11-24T10:46:55.743Z,1.80
2022-11-24T10:49:27.876Z,1.58
2022-11-24T10:52:07.216Z,1.60
2022-11-24T10:54:41.452Z,1.95
2022-11-24T10:57:11.122Z,1.83
2022-11-24T10:59:40.884Z,1.77
2022-11-24T11:02:31.468Z,1.50
2022-11-24T11:05:01.444Z,1.80
2022-11-24T11:07:33.609Z,1.25
2022-11-24T11:10:18.233Z,1.42
2022-11-24T11:12:47.954Z,1.42
2022-11-24T11:15:27.512Z,1.50
2022-11-24T11:18:00.012Z,1.70
2022-11-24T11:20:31.609Z,1.58
2022-11-24T11:23:05.988Z,1.40
2022-11-24T11:25:38.333Z,1.27
2022-11-24T11:28:20.738Z,1.65
2022-11-24T11:31:17.827Z,2.20
2022-11-24T11:34:07.383Z,1.52
2022-11-24T11:36:40.304Z,1.77
2022-11-24T11:39:18.501Z,1.60
2022-11-24T11:41:49.113Z,1.40
2022-11-24T11:44:24.457Z,1.92
2022-11-24T11:46:54.614Z,1.45
2022-11-24T11:49:24.093Z,1.65
2022-11-24T11:52:01.489Z,1.63
2022-11-24T11:54:38.594Z,1.52
2022-11-24T11:57:10.646Z,1.10
2022-11-24T12:00:01.822Z,1.65
2022-11-24T12:02:53.713Z,2.45
2022-11-24T12:05:30.069Z,1.88
2022-11-24T12:08:10.078Z,1.80
2022-11-24T12:10:44.811Z,1.83
2022-11-24T12:13:32.249Z,2.05
2022-11-24T12:16:06.168Z,2.13
2022-11-24T12:18:57.123Z,1.70
2022-11-24T12:21:31.940Z,2.00
2022-11-24T12:24:05.761Z,1.70
2022-11-24T12:26:42.191Z,1.63
2022-11-24T12:29:25.400Z,1.70
2022-11-24T12:31:59.033Z,1.63
2022-11-24T12:34:36.180Z,1.73
2022-11-24T12:37:19.710Z,1.90
2022-11-24T12:39:53.515Z,1.90
2022-11-24T12:42:29.601Z,1.75
2022-11-24T12:45:15.971Z,1.90
2022-11-24T12:47:53.674Z,1.77
2022-11-24T12:50:24.109Z,1.50
2022-11-24T12:52:58.820Z,1.90
2022-11-24T12:55:29.542Z,1.60
2022-11-24T12:58:10.813Z,1.95
2022-11-24T13:00:45.747Z,2.00
2022-11-24T13:03:21.695Z,1.95
2022-11-24T13:05:55.749Z,2.10
2022-11-24T13:08:25.840Z,2.15
2022-11-24T13:10:57.484Z,1.95
2022-11-24T13:13:51.735Z,1.80
2022-11-24T13:16:48.773Z,1.77
2022-11-24T13:19:12.784Z,1.77
2022-11-24T13:21:51.084Z,2.28
2022-11-24T13:24:25.359Z,2.40
2022-11-24T13:26:55.736Z,2.05
2022-11-24T13:29:37.920Z,1.85
2022-11-24T13:32:22.620Z,2.25
2022-11-24T13:35:05.154Z,2.03
2022-11-24T13:37:51.870Z,2.92
2022-11-24T13:41:06.371Z,2.08
2022-11-24T13:43:37.661Z,1.83
2022-11-24T13:46:11.977Z,2.92
2022-11-24T13:48:56.945Z,2.22
2022-11-24T13:51:27.115Z,1.73
2022-11-24T13:53:57.483Z,2.30
2022-11-24T13:56:28.735Z,1.65
2022-11-24T13:58:59.448Z,2.50
2022-11-24T14:01:33.183Z,1.77
2022-11-24T14:04:33.588Z,1.92
2022-11-24T14:07:08.345Z,2.10
2022-11-24T14:09:40.209Z,2.10
2022-11-24T14:12:14.470Z,2.10
2022-11-24T14:14:44.452Z,2.22
2022-11-24T14:17:19.749Z,2.28
2022-11-24T14:19:50.450Z,2.00
2022-11-24T14:22:21.954Z,1.73
2022-11-24T14:24:54.977Z,1.90
2022-11-24T14:27:28.788Z,1.80
2022-11-24T14:29:59.097Z,1.92
2022-11-24T14:32:31.218Z,1.45
2022-11-24T14:35:01.099Z,1.60
2022-11-24T14:37:30.630Z,2.17
2022-11-24T14:40:00.077Z,1.48
2022-11-24T14:42:30.150Z,1.50
2022-11-24T14:45:00.078Z,1.92
2022-11-24T14:47:33.638Z,1.48
2022-11-24T14:50:11.446Z,1.33
2022-11-24T14:52:46.436Z,1.48
2022-11-24T14:55:26.900Z,1.88
2022-11-24T14:57:56.643Z,2.25
2022-11-24T15:00:29.883Z,1.58
2022-11-24T15:03:11.031Z,2.22
2022-11-24T15:05:58.580Z,1.73
2022-11-24T15:08:29.119Z,1.45
2022-11-24T15:11:00.010Z,1.88
2022-11-24T15:13:29.796Z,1.75
2022-11-24T15:16:03.121Z,1.70
2022-11-24T15:18:38.897Z,1.23
2022-11-24T15:21:08.901Z,1.88
2022-11-24T15:23:41.367Z,2.13
2022-11-24T15:26:31.243Z,1.67
2022-11-24T15:29:02.619Z,2.05
2022-11-24T15:31:32.111Z,1.42
2022-11-24T15:34:04.298Z,2.00
2022-11-24T15:36:33.881Z,1.63
2022-11-24T15:39:03.338Z,2.20
2022-11-24T15:41:34.198Z,1.88
2022-11-24T15:44:03.914Z,1.73
2022-11-24T15:46:38.113Z,2.70
2022-11-24T15:49:10.725Z,1.92
2022-11-24T15:51:43.216Z,2.75
2022-11-24T15:54:14.426Z,2.22
2022-11-24T15:56:44.701Z,2.25
2022-11-24T15:59:20.242Z,2.25
2022-11-24T16:01:51.081Z,2.38
2022-11-24T16:04:23.425Z,2.67
2022-11-24T16:06:52.975Z,2.85
2022-11-24T16:09:22.447Z,2.22
2022-11-24T16:11:51.960Z,2.83
2022-11-24T16:14:21.520Z,2.15
2022-11-24T16:16:51.116Z,2.67
2022-11-24T16:19:23.217Z,2.25
2022-11-24T16:21:53.024Z,2.00
2022-11-24T16:24:22.517Z,2.55
2022-11-24T16:26:52.077Z,2.58
2022-11-24T16:29:23.713Z,2.40
2022-11-24T16:31:54.240Z,2.00
2022-11-24T16:34:26.496Z,2.25
2022-11-24T16:36:56.010Z,1.98
2022-11-24T16:39:25.504Z,1.83
2022-11-24T16:41:55.037Z,2.22
2022-11-24T16:44:24.787Z,2.47
2022-11-24T16:46:54.342Z,2.30
2022-11-24T16:49:26.470Z,1.80
2022-11-24T16:51:56.034Z,2.75
2022-11-24T16:54:25.726Z,3.47
2022-11-24T16:56:55.498Z,3.85
2022-11-24T16:59:24.962Z,2.88
2022-11-24T17:01:54.571Z,3.35
2022-11-24T17:04:26.744Z,2.25
2022-11-24T17:06:57.285Z,2.58
2022-11-24T17:09:27.098Z,2.35
2022-11-24T17:11:56.558Z,2.95
2022-11-24T17:14:26.009Z,2.30
2022-11-24T17:16:55.521Z,1.60
2022-11-24T17:19:27.640Z,2.00
2022-11-24T17:21:57.248Z,2.20
2022-11-24T17:24:26.716Z,1.88
2022-11-24T17:26:56.135Z,2.22
2022-11-24T17:29:25.903Z,2.22
2022-11-24T17:31:55.394Z,2.25
2022-11-24T17:34:27.490Z,2.28
2022-11-24T17:36:56.958Z,3.08
2022-11-24T17:39:27.866Z,2.95
2022-11-24T17:41:57.339Z,2.95
2022-11-24T17:44:27.071Z,2.03
2022-11-24T17:46:56.789Z,2.50
2022-11-24T17:49:28.919Z,2.88
2022-11-24T17:51:58.481Z,2.80
2022-11-24T17:57:17.587Z,4.03
2022-11-24T17:59:47.055Z,3.88
2022-11-24T18:02:16.517Z,6.90
2022-11-24T18:04:48.664Z,6.00
2022-11-24T18:07:18.255Z,6.70
2022-11-24T18:09:47.884Z,5.95
2022-11-24T18:12:17.392Z,7.95
2022-11-24T18:14:46.819Z,8.25
2022-11-24T18:17:16.359Z,9.55
2022-11-24T18:19:48.429Z,8.23
2022-11-24T18:22:19.135Z,5.82
2022-11-24T18:24:56.720Z,5.00
2022-11-24T18:27:26.178Z,4.65
2022-11-24T18:29:56.296Z,5.65
2022-11-24T18:32:26.096Z,4.93
2022-11-24T18:34:58.151Z,4.53
2022-11-24T18:37:27.742Z,4.03
2022-11-24T18:39:57.177Z,4.47
2022-11-24T18:42:26.769Z,4.22
2022-11-24T18:44:56.746Z,3.80
2022-11-24T18:47:26.244Z,3.80
2022-11-24T18:50:00.422Z,3.35
2022-11-24T18:52:30.084Z,4.00
2022-11-24T18:55:03.911Z,3.95
2022-11-24T18:57:33.740Z,4.18
2022-11-24T19:00:03.206Z,3.55
2022-11-24T19:02:32.891Z,4.45
2022-11-24T19:05:05.732Z,3.78
2022-11-24T19:07:35.399Z,4.57
2022-11-24T19:10:04.911Z,4.90
2022-11-24T19:12:34.370Z,3.95
2022-11-24T19:15:03.889Z,4.40
2022-11-24T19:17:33.332Z,4.63
2022-11-24T19:20:05.490Z,4.93
2022-11-24T19:22:34.986Z,5.03
2022-11-24T19:25:04.453Z,4.45
2022-11-24T19:27:34.359Z,4.63
2022-11-24T19:30:03.802Z,4.88
2022-11-24T19:32:34.131Z,5.40
2022-11-24T19:35:06.373Z,4.82
2022-11-24T19:37:35.890Z,4.35
2022-11-24T19:40:05.354Z,4.60
2022-11-24T19:42:34.912Z,5.82
2022-11-24T19:45:04.371Z,4.43
2022-11-24T19:47:33.906Z,5.10
2022-11-24T19:50:10.314Z,5.53
2022-11-24T19:52:39.994Z,4.05
2022-11-24T19:55:09.833Z,4.68
2022-11-24T19:57:39.279Z,4.55
2022-11-24T20:00:09.753Z,5.75
2022-11-24T20:02:39.288Z,4.22
2022-11-24T20:05:11.628Z,5.00
2022-11-24T20:07:41.212Z,5.40
2022-11-24T20:10:11.358Z,4.50
2022-11-24T20:12:40.842Z,5.40
2022-11-24T20:15:11.081Z,4.75
2022-11-24T20:17:40.520Z,4.80
2022-11-24T20:20:13.162Z,5.25
2022-11-24T20:22:42.921Z,5.10
2022-11-24T20:25:12.404Z,5.25
2022-11-24T20:27:41.967Z,5.32
2022-11-24T20:30:12.130Z,5.10
2022-11-24T20:32:41.674Z,5.05
2022-11-24T20:35:18.163Z,5.15
2022-11-24T20:37:48.062Z,5.07
2022-11-24T20:40:17.794Z,4.40
2022-11-24T20:42:47.294Z,5.10
2022-11-24T20:45:16.774Z,4.53
2022-11-24T20:47:46.269Z,4.63
2022-11-24T20:50:18.579Z,4.82
2022-11-24T20:52:48.326Z,4.78
2022-11-24T20:55:17.908Z,5.35
2022-11-24T20:57:47.349Z,5.70
2022-11-24T21:00:17.104Z,4.70
2022-11-24T21:02:47.335Z,4.80
2022-11-24T21:05:19.842Z,4.30
2022-11-24T21:07:49.423Z,3.72
2022-11-24T21:10:18.897Z,3.50
2022-11-24T21:12:48.428Z,3.80
2022-11-24T21:15:18.032Z,3.78
2022-11-24T21:17:47.537Z,4.10
2022-11-24T21:20:19.741Z,3.72
2022-11-24T21:22:49.294Z,3.78
2022-11-24T21:25:18.929Z,3.35
2022-11-24T21:27:48.454Z,3.70
2022-11-24T21:30:18.378Z,3.20
2022-11-24T21:32:47.837Z,3.78
2022-11-24T21:35:20.031Z,3.65
2022-11-24T21:37:49.742Z,3.35
2022-11-24T21:40:19.238Z,3.50
2022-11-24T21:42:48.790Z,3.83
2022-11-24T21:45:18.392Z,3.72
2022-11-24T21:47:48.324Z,3.63
2022-11-24T21:50:20.559Z,3.90
2022-11-24T21:52:50.302Z,4.15
2022-11-24T21:55:19.864Z,4.07
2022-11-24T21:57:49.328Z,9.18
2022-11-24T22:00:19.358Z,5.60
2022-11-24T22:02:49.004Z,4.85
2022-11-24T22:05:21.289Z,5.93
2022-11-24T22:07:51.033Z,4.20
2022-11-24T22:10:20.812Z,4.38
2022-11-24T22:12:50.331Z,3.65
2022-11-24T22:15:19.764Z,3.78
2022-11-24T22:17:49.285Z,3.60
2022-11-24T22:20:21.492Z,3.35
2022-11-24T22:22:54.070Z,3.67
2022-11-24T22:25:23.690Z,4.03
2022-11-24T22:27:53.160Z,3.63
2022-11-24T22:30:22.730Z,4.07
2022-11-24T22:32:52.212Z,3.45
2022-11-24T22:35:24.332Z,3.65
2022-11-24T22:37:54.527Z,3.15
2022-11-24T22:40:24.373Z,3.42
2022-11-24T22:42:54.809Z,3.70
2022-11-24T22:45:24.368Z,3.72
2022-11-24T22:47:56.464Z,3.90
2022-11-24T22:50:28.578Z,5.30
2022-11-24T22:52:58.403Z,5.10
2022-11-24T22:55:27.953Z,6.57
2022-11-24T22:57:57.370Z,8.43
2022-11-24T23:00:26.871Z,6.50
2022-11-24T23:02:57.031Z,4.87
2022-11-24T23:05:29.327Z,4.93
2022-11-24T23:07:58.883Z,7.53
2022-11-24T23:10:28.324Z,6.33
2022-11-24T23:12:57.880Z,5.45
2022-11-24T23:15:27.302Z,4.50
2022-11-24T23:17:56.794Z,5.37
2022-11-24T23:20:26.229Z,4.95
2022-11-24T23:22:58.405Z,4.38
2022-11-24T23:25:28.122Z,4.03
2022-11-24T23:27:57.574Z,4.27
2022-11-24T23:30:27.023Z,4.10
2022-11-24T23:32:56.503Z,3.83
2022-11-24T23:35:26.032Z,4.00
2022-11-24T23:38:07.487Z,4.07
2022-11-24T23:40:37.544Z,4.20
2022-11-24T23:43:07.031Z,4.13
2022-11-24T23:45:36.479Z,3.60
2022-11-24T23:48:08.577Z,3.57
2022-11-24T23:50:38.134Z,3.03
2022-11-24T23:53:10.415Z,4.03
2022-11-24T23:55:39.935Z,4.07
2022-11-24T23:58:09.748Z,3.57
